| Date | Time | Temp. (oF) | Dew Point (oF) | Rel. Hum. (%) | Press. (in.) | Wind Dir. | Wind Speed (mph) | Hourly Rainfall (in.) |
|
|---|---|---|---|---|---|---|---|---|---|
| 1 | 12/20 | 00:00 | 18 | 11 | 74 | 30.23 | WNW | 3 | 0.00 |
| 2 | 12/19 | 23:00 | 19 | 11 | 73 | 30.24 | WNW | 4 | 0.00 |
| 3 | 12/19 | 22:00 | 19 | 11 | 71 | 30.27 | WNW | 3 | 0.00 |
| 4 | 12/19 | 21:00 | 21 | 11 | 67 | 30.26 | W | 6 | 0.00 |
| 5 | 12/19 | 20:00 | 22 | 12 | 67 | 30.25 | W | 7 | 0.00 |
| 6 | 12/19 | 19:00 | 23 | 12 | 65 | 30.26 | W | 3 | 0.00 |
| 7 | 12/19 | 18:00 | 24 | 12 | 62 | 30.25 | NW | 5 | 0.00 |
| 8 | miss | miss | miss | miss | miss | miss | miss | miss | |
| 9 | 12/19 | 10:25 | 32 | 25 | 77 | 30.27 | WNW | 13 | 0.00 |
| 10 | miss | miss | miss | miss | miss | miss | miss | miss | |
| 11 | 12/19 | 10:25 | 32 | 25 | 77 | 30.27 | WNW | 13 | 0.00 |
| 12 | miss | miss | miss | miss | miss | miss | miss | miss | |
| 13 | 12/19 | 10:25 | 32 | 25 | 77 | 30.27 | WNW | 13 | 0.00 |
| 14 | miss | miss | miss | miss | miss | miss | miss | miss | |
| 15 | 12/19 | 10:00 | 33 | 26 | 77 | 30.26 | WSW | 3 | 0.00 |
| 16 | 12/19 | 09:00 | 32 | 27 | 83 | 30.25 | WNW | 6 | 0.00 |
| 17 | 12/19 | 08:00 | 29 | 28 | 96 | 30.25 | W | 5 | 0.00 |
| 18 | 12/19 | 07:00 | 27 | 27 | 100 | 30.26 | WNW | 1 | 0.00 |
| 19 | 12/19 | 06:00 | 26 | 25 | 99 | 30.26 | NW | 0 | 0.00 |
| 20 | 12/19 | 05:00 | 25 | 24 | 98 | 30.26 | WSW | 0 | 0.00 |
| 21 | 12/19 | 04:00 | 25 | 24 | 98 | 30.26 | WSW | 0 | 0.00 |
| 22 | 12/19 | 03:00 | 25 | 24 | 96 | 30.29 | SW | 0 | 0.00 |
| 23 | 12/19 | 02:00 | 25 | 23 | 95 | 30.29 | S | 0 | 0.00 |
| 24 | 12/19 | 01:00 | 26 | 24 | 95 | 30.29 | S | 1 | 0.00 |